Terminal Aerodrome Forecast
Issued by NWS Detroit/Pontiac, MI

Home | Current Version | Previous Version | Text Only | Print | Product List | Glossary On
Versions: 1 2 3 4 5 6 7 8 9 10 11 12 13 14 15 16 17 18 19 20 21 22 23 24 25 26 27 28 29 30
047
FTUS43 KDTX 160913 AAA
TAFDTW
TAF AMD
KDTW 160913Z 1609/1712 24008KT 6SM BR BKN012 OVC025
      TEMPO 1610/1612 4SM -SN BR OVC010
     FM161400 25007KT 6SM -SHSN BKN020
     FM162000 26006KT 3SM -SHSN BKN020
     FM170100 30007KT P6SM BKN020=

USA.gov is the U.S. government's official web portal to all federal, state and local government web resources and services.